Time;durP1;ratioP1;P1;durP2;ratioP2;P2;SDS_P1;SDS_P2;PMS_P1;PMS_P2;Temp;Humidity;BMP_temperature;BMP_pressure;BME280_temperature;BME280_humidity;BME280_pressure;Samples;Min_cycle;Max_cycle;Signal;HPM_P1;HPM_P2
2022/11/03 00:01:46;;;;;;;31.12;21.00;;;;;;;10.26;71.36;99522.11;1791472;80;20938;-41
2022/11/03 00:04:15;;;;;;;28.77;19.40;;;;;;;10.21;71.48;99515.03;1791810;79;20978;-40
2022/11/03 00:06:43;;;;;;;30.72;18.98;;;;;;;10.27;71.42;99514.95;1791524;79;20946;-40
2022/11/03 00:09:12;;;;;;;29.10;20.02;;;;;;;10.35;71.36;99519.42;1791572;80;21076;-41
2022/11/03 00:11:40;;;;;;;34.92;21.55;;;;;;;10.32;71.51;99516.61;1791523;79;21190;-40
2022/11/03 00:14:10;;;;;;;30.62;21.27;;;;;;;10.26;71.52;99518.04;1791742;79;20957;-40
2022/11/03 00:16:38;;;;;;;34.92;21.05;;;;;;;10.23;71.66;99528.21;1791595;80;20989;-40
2022/11/03 00:19:06;;;;;;;31.73;20.23;;;;;;;10.21;71.73;99526.44;1791567;80;20973;-40
2022/11/03 00:21:34;;;;;;;30.52;19.57;;;;;;;10.26;71.75;99526.17;1792088;79;21551;-40
2022/11/03 00:24:04;;;;;;;29.15;20.50;;;;;;;10.31;71.63;99521.83;1791502;79;21129;-40
2022/11/03 00:26:32;;;;;;;;;;;;;;;10.29;71.70;99524.89;1794352;80;21507;-40
2022/11/03 00:29:01;;;;;;;32.15;21.40;;;;;;;10.29;71.70;99511.91;1791599;80;20448;-40
2022/11/03 00:31:30;;;;;;;31.15;20.90;;;;;;;10.20;72.03;99508.04;1792209;80;20957;-40
2022/11/03 00:33:58;;;;;;;31.73;20.87;;;;;;;10.25;71.92;99501.56;1792015;79;21084;-40
2022/11/03 00:36:31;;;;;;;36.05;20.85;;;;;;;10.31;71.72;99498.80;1791690;79;20965;-40
2022/11/03 00:38:59;;;;;;;35.63;22.13;;;;;;;10.39;71.67;99510.00;1791247;79;21504;-40
2022/11/03 00:41:27;;;;;;;35.03;21.87;;;;;;;10.40;71.78;99508.87;1791705;79;21858;-40
2022/11/03 00:43:56;;;;;;;37.65;22.90;;;;;;;10.34;71.91;99511.63;1791681;80;21496;-40
2022/11/03 00:46:24;;;;;;;41.18;24.27;;;;;;;10.29;72.12;99505.13;1791700;79;21084;-40
2022/11/03 00:48:53;;;;;;;41.15;21.87;;;;;;;10.23;72.40;99503.26;1791597;79;21068;-40
2022/11/03 00:51:22;;;;;;;47.23;22.40;;;;;;;10.25;72.58;99505.63;1791527;79;21034;-40
2022/11/03 00:53:54;;;;;;;48.65;24.00;;;;;;;10.28;72.67;99511.12;1791805;79;21531;-40
2022/11/03 00:56:34;;;;;;;46.75;23.22;;;;;;;10.33;72.86;99505.98;1791378;80;20969;-40
2022/11/03 00:59:02;;;;;;;47.85;25.62;;;;;;;10.34;73.04;99506.21;1790770;79;21013;-41
2022/11/03 01:01:32;;;;;;;52.10;26.37;;;;;;;10.34;73.14;99511.63;1791488;79;21089;-40
2022/11/03 01:06:50;;;;;;;45.33;24.90;;;;;;;10.35;73.30;99518.63;1791530;79;21068;-40
2022/11/03 01:09:20;;;;;;;48.25;24.43;;;;;;;10.39;73.25;99515.42;1791841;80;21476;-40
2022/11/03 01:12:03;;;;;;;49.27;24.45;;;;;;;10.41;73.20;99513.13;1791405;80;20963;-40
2022/11/03 01:14:36;;;;;;;40.12;23.15;;;;;;;10.40;73.38;99502.88;1791544;79;21543;-40
2022/11/03 01:17:06;;;;;;;39.73;22.35;;;;;;;10.41;73.45;99505.78;1791306;80;20962;-40
2022/11/03 01:19:33;;;;;;;33.25;21.50;;;;;;;10.44;73.34;99508.38;1792011;80;21595;-40
2022/11/03 01:22:00;;;;;;;31.93;19.32;;;;;;;10.40;73.40;99508.87;1791496;79;21072;-40
2022/11/03 01:24:26;;;;;;;30.90;20.05;;;;;;;10.46;73.40;99507.42;1791687;79;21014;-40
2022/11/03 01:26:53;;;;;;;33.63;20.62;;;;;;;10.53;73.38;99508.95;1791559;79;21193;-40
2022/11/03 01:29:20;;;;;;;29.32;20.05;;;;;;;10.54;73.29;99511.88;1791305;80;21487;-40
2022/11/03 01:31:47;;;;;;;31.55;20.77;;;;;;;10.47;73.36;99514.42;1791721;79;21488;-40
2022/11/03 01:34:18;;;;;;;32.13;18.35;;;;;;;10.41;73.59;99511.77;1791457;80;21016;-40
2022/11/03 01:36:45;;;;;;;31.97;19.42;;;;;;;10.39;73.66;99509.44;1795277;79;20978;-40
2022/11/03 01:39:15;;;;;;;27.13;18.37;;;;;;;10.43;73.62;99508.94;1800064;79;21524;-40
2022/11/03 01:41:45;;;;;;;28.87;19.45;;;;;;;10.45;73.68;99508.02;1799647;79;20922;-40
2022/11/03 01:44:17;;;;;;;30.88;20.12;;;;;;;10.41;73.77;99504.42;1800282;79;21368;-40
2022/11/03 01:46:57;;;;;;;28.42;18.55;;;;;;;10.37;73.94;99506.84;1800145;79;21069;-40
2022/11/03 01:49:47;;;;;;;28.27;18.37;;;;;;;10.34;74.14;99503.50;1800267;78;21068;-40
2022/11/03 01:52:19;;;;;;;24.77;17.07;;;;;;;10.33;74.26;99501.92;1800144;79;21195;-41
2022/11/03 01:54:50;;;;;;;24.95;17.45;;;;;;;10.38;74.05;99496.23;1800104;79;21029;-40
2022/11/03 01:57:23;;;;;;;25.60;17.15;;;;;;;9.79;73.99;99397.00;1799961;79;21207;-40
2022/11/03 01:59:50;;;;;;;25.57;16.85;;;;;;;10.43;74.35;99497.31;1799898;78;21025;-40
2022/11/03 02:02:18;;;;;;;24.18;18.12;;;;;;;10.45;74.26;99502.61;1800032;79;21554;-40
2022/11/03 02:04:45;;;;;;;24.82;15.75;;;;;;;10.43;74.30;99506.23;1799893;79;21126;-40
2022/11/03 02:07:36;;;;;;;21.20;15.20;;;;;;;10.41;74.29;99497.66;1799801;79;21049;-40
2022/11/03 02:10:04;;;;;;;21.85;15.23;;;;;;;10.48;74.21;99498.38;1799989;78;21002;-40
2022/11/03 02:12:33;;;;;;;21.00;15.13;;;;;;;10.47;74.24;99488.67;1799818;78;20977;-40
2022/11/03 02:15:05;;;;;;;23.27;16.23;;;;;;;10.48;74.36;99492.96;1799949;79;21008;-40
2022/11/03 02:17:33;;;;;;;21.55;14.63;;;;;;;10.48;74.45;99502.45;1800010;79;21264;-40
2022/11/03 02:20:16;;;;;;;24.07;14.65;;;;;;;10.47;74.49;99495.45;1799818;78;20953;-40
2022/11/03 02:23:27;;;;;;;20.50;14.13;;;;;;;10.48;74.49;99490.25;1745006;79;20998;-40
2022/11/03 02:25:57;;;;;;;19.05;13.58;;;;;;;10.58;74.37;99491.05;1799810;79;21055;-40
2022/11/03 02:28:28;;;;;;;22.80;14.30;;;;;;;10.62;74.41;99488.41;1800086;79;21500;-40
2022/11/03 02:31:16;;;;;;;;;;;;;;;10.63;74.36;99494.83;1796728;79;21193;-40
2022/11/03 02:34:00;;;;;;;18.00;13.15;;;;;;;10.66;74.37;99491.40;1798439;79;20420;-40
2022/11/03 02:36:46;;;;;;;19.17;13.18;;;;;;;10.54;74.53;99480.70;1798223;79;21005;-40
2022/11/03 02:39:26;;;;;;;20.48;12.40;;;;;;;10.58;74.42;99478.85;1796186;79;20926;-40
2022/11/03 02:41:55;;;;;;;17.32;12.88;;;;;;;10.70;74.33;99478.70;1791566;80;21005;-41
2022/11/03 02:44:24;;;;;;;18.55;12.55;;;;;;;10.78;74.17;99472.30;1769832;80;21179;-40
2022/11/03 02:46:56;;;;;;;20.00;13.45;;;;;;;10.82;74.19;99477.20;1770373;80;21570;-40
2022/11/03 02:49:23;;;;;;;20.27;12.50;;;;;;;10.84;74.15;99479.58;1791374;79;20934;-40
2022/11/03 02:52:02;;;;;;;15.75;11.75;;;;;;;10.85;74.07;99477.84;1791363;80;21101;-40
2022/11/03 02:54:35;;;;;;;18.77;12.23;;;;;;;10.83;73.94;99477.43;1791386;80;21266;-40
2022/11/03 02:57:17;;;;;;;17.30;11.95;;;;;;;10.84;73.96;99478.97;1791662;80;21287;-40
2022/11/03 02:59:54;;;;;;;18.25;12.20;;;;;;;10.87;74.14;99476.13;1791538;79;20946;-40
2022/11/03 03:02:27;;;;;;;19.80;11.73;;;;;;;10.80;74.30;99477.34;1791582;80;21017;-40
2022/11/03 03:04:56;;;;;;;15.13;10.68;;;;;;;10.74;74.59;99472.01;1791654;80;21520;-40
2022/11/03 03:07:30;;;;;;;14.85;10.80;;;;;;;10.69;74.65;99471.73;1791658;80;21045;-40
2022/11/03 03:10:05;;;;;;;13.65;10.25;;;;;;;10.70;74.72;99480.05;1791606;80;21233;-40
2022/11/03 03:12:34;;;;;;;16.17;10.70;;;;;;;10.72;75.01;99478.34;1791618;80;21024;-40
2022/11/03 03:15:01;;;;;;;14.03;10.13;;;;;;;10.69;75.15;99477.72;1791802;80;21084;-40
2022/11/03 03:17:53;;;;;;;12.47;9.85;;;;;;;10.67;75.34;99476.70;1791539;80;21564;-40
2022/11/03 03:20:34;;;;;;;11.03;9.00;;;;;;;10.68;75.44;99476.93;1791770;79;21563;-40
2022/11/03 03:23:18;;;;;;;11.45;9.08;;;;;;;10.76;75.44;99472.42;1788766;79;21238;-40
2022/11/03 03:25:54;;;;;;;11.88;8.80;;;;;;;10.77;75.46;99467.22;1791498;80;21499;-40
2022/11/03 03:28:40;;;;;;;11.03;8.88;;;;;;;10.79;75.60;99464.94;1791464;80;21069;-40
2022/11/03 03:31:09;;;;;;;11.57;7.72;;;;;;;10.78;75.69;99463.37;1791825;80;20942;-41
2022/11/03 03:33:36;;;;;;;9.40;7.87;;;;;;;10.82;75.65;99459.58;1791588;80;21492;-40
2022/11/03 03:36:06;;;;;;;10.58;7.50;;;;;;;10.84;75.59;99458.63;1791451;80;21296;-40
2022/11/03 03:38:38;;;;;;;9.23;7.08;;;;;;;10.85;75.81;99449.93;1791482;79;20993;-40
2022/11/03 03:43:39;;;;;;;8.20;6.50;;;;;;;10.88;76.24;99450.02;1778157;78;22125;-41
2022/11/03 03:46:08;;;;;;;7.25;5.62;;;;;;;10.87;76.19;99457.15;1755557;81;20972;-40
2022/11/03 03:48:34;;;;;;;7.12;6.20;;;;;;;10.88;76.33;99456.80;1755759;81;22042;-41
2022/11/03 03:51:01;;;;;;;8.65;6.45;;;;;;;10.90;76.50;99447.71;1722169;81;21555;-40
2022/11/03 03:53:29;;;;;;;7.97;6.70;;;;;;;10.88;76.76;99448.66;1722363;81;20928;-40
2022/11/03 03:55:57;;;;;;;7.55;5.80;;;;;;;10.87;76.97;99443.02;1755762;81;21007;-40
2022/11/03 03:58:24;;;;;;;7.15;5.75;;;;;;;10.92;77.01;99443.30;1755894;81;20971;-40
2022/11/03 04:00:50;;;;;;;6.80;5.92;;;;;;;11.01;76.92;99445.20;1755726;81;21243;-40
2022/11/03 04:03:20;;;;;;;8.05;6.62;;;;;;;11.08;76.90;99440.49;1755742;81;20897;-41
2022/11/03 04:05:46;;;;;;;8.20;6.33;;;;;;;11.09;76.95;99441.47;1756142;81;20924;-40
2022/11/03 04:08:15;;;;;;;7.78;6.20;;;;;;;11.09;76.92;99443.39;1755641;81;20948;-40
2022/11/03 04:22:15;;;;;;;7.10;6.05;;;;;;;11.13;76.90;99445.63;1755813;81;21023;-40
2022/11/03 04:24:15;;;;;;;8.55;6.87;;;;;;;11.24;76.65;99435.72;1756121;81;21473;-40
2022/11/03 04:26:41;;;;;;;10.00;7.50;;;;;;;11.27;76.73;99420.09;1722588;81;21087;-40
2022/11/03 04:29:10;;;;;;;9.95;7.72;;;;;;;11.30;76.81;99428.28;1722359;81;21059;-40
2022/11/03 04:31:37;;;;;;;9.43;7.72;;;;;;;11.30;77.07;99426.13;1722697;81;20952;-41
2022/11/03 04:34:11;;;;;;;11.53;8.35;;;;;;;11.30;77.27;99422.06;1755860;81;21043;-41
2022/11/03 04:36:38;;;;;;;10.48;7.65;;;;;;;11.27;77.47;99426.30;1756194;81;21087;-40
2022/11/03 04:39:16;;;;;;;10.25;8.20;;;;;;;11.32;77.52;99418.42;1755924;81;21125;-40
2022/11/03 04:41:43;;;;;;;11.40;8.98;;;;;;;11.35;77.63;99423.12;1754718;81;21039;-41
2022/11/03 04:44:14;;;;;;;14.47;9.75;;;;;;;11.32;78.11;99426.00;1745243;82;21324;-41
2022/11/03 04:46:41;;;;;;;14.85;9.45;;;;;;;11.27;78.30;99419.52;1745355;81;20937;-40
2022/11/03 04:49:13;;;;;;;13.95;9.55;;;;;;;11.30;78.44;99418.00;1745342;82;21083;-40
2022/11/03 04:51:41;;;;;;;14.07;9.30;;;;;;;11.37;78.42;99419.48;1745268;81;20992;-41
2022/11/03 04:54:21;;;;;;;13.43;9.85;;;;;;;11.43;78.43;99424.01;1719801;82;20964;-40
2022/11/03 04:56:48;;;;;;;14.07;9.67;;;;;;;11.44;78.46;99423.66;1745426;82;20999;-40
2022/11/03 04:59:15;;;;;;;13.55;9.03;;;;;;;11.45;78.48;99429.30;1744757;82;21004;-40
2022/11/03 05:01:43;;;;;;;12.63;9.08;;;;;;;11.49;78.36;99430.14;1719778;82;21083;-40
2022/11/03 05:04:15;;;;;;;14.75;9.95;;;;;;;11.56;78.25;99424.05;1744871;82;21106;-41
2022/11/03 05:06:51;;;;;;;15.63;10.25;;;;;;;11.54;78.37;99425.76;1752866;80;20977;-40
2022/11/03 05:09:26;;;;;;;14.55;9.88;;;;;;;11.55;78.29;99431.41;1762010;80;21551;-40
2022/11/03 05:11:55;;;;;;;14.75;9.33;;;;;;;11.54;78.32;99428.47;1762093;81;21025;-41
2022/11/03 05:14:26;;;;;;;16.27;10.03;;;;;;;11.60;78.20;99428.38;1761910;80;20977;-40
2022/11/03 05:16:53;;;;;;;15.40;9.98;;;;;;;11.64;78.12;99431.14;1762030;80;21140;-40
2022/11/03 05:19:34;;;;;;;16.85;10.43;;;;;;;11.63;78.07;99433.08;1761971;81;20922;-41
2022/11/03 05:22:02;;;;;;;17.48;9.98;;;;;;;11.58;78.21;99432.02;1761829;81;20934;-41
2022/11/03 05:24:29;;;;;;;12.73;8.80;;;;;;;11.55;78.34;99433.34;1762012;81;20965;-40
2022/11/03 05:26:57;;;;;;;15.75;8.90;;;;;;;11.61;78.30;99438.11;1761988;80;21081;-41
2022/11/03 05:29:36;;;;;;;15.03;9.88;;;;;;;11.67;78.27;99442.63;1761880;81;21131;-40
2022/11/03 05:32:12;;;;;;;15.88;9.85;;;;;;;11.67;78.14;99444.77;1761887;81;21464;-41
2022/11/03 05:34:47;;;;;;;13.88;9.05;;;;;;;11.63;78.18;99450.73;1761991;81;20962;-40
2022/11/03 05:37:33;;;;;;;11.20;8.88;;;;;;;11.66;78.21;99457.38;1738792;81;21531;-40
2022/11/03 05:40:23;;;;;;;15.90;9.48;;;;;;;11.71;78.06;99457.08;1762329;81;21034;-40
2022/11/03 05:42:56;;;;;;;14.45;9.55;;;;;;;11.72;78.09;99458.08;1770847;79;21185;-41
2022/11/03 05:45:30;;;;;;;15.30;9.50;;;;;;;11.71;78.04;99448.92;1783308;80;21032;-40
2022/11/03 05:47:57;;;;;;;14.07;8.80;;;;;;;11.74;77.87;99455.00;1784057;80;20997;-40
2022/11/03 05:50:29;;;;;;;13.93;8.75;;;;;;;11.79;77.71;99455.27;1783892;80;21009;-40
2022/11/03 05:53:29;;;;;;;13.88;8.75;;;;;;;11.83;77.44;99454.74;1751286;80;21577;-41
2022/11/03 05:56:00;;;;;;;14.87;9.50;;;;;;;11.81;77.49;99451.63;1783876;80;23166;-41
2022/11/03 05:58:39;;;;;;;15.98;8.78;;;;;;;11.75;77.51;99457.37;1782792;80;21052;-40
2022/11/03 06:01:25;;;;;;;;;;;;;;;11.79;77.57;99453.91;1786244;80;21546;-41
2022/11/03 06:03:52;;;;;;;17.87;8.83;;;;;;;11.83;77.41;99452.02;1783699;80;21435;-40
2022/11/03 06:06:34;;;;;;;15.32;9.50;;;;;;;11.73;77.68;99450.14;1783682;80;21496;-41
2022/11/03 06:09:05;;;;;;;13.68;8.70;;;;;;;11.78;77.74;99449.05;1783785;80;21797;-41
2022/11/03 06:11:34;;;;;;;15.53;8.18;;;;;;;11.85;77.50;99453.81;1772322;80;21007;-41
2022/11/03 06:14:19;;;;;;;14.30;8.95;;;;;;;11.90;77.25;99453.50;1783710;80;21012;-40
2022/11/03 06:16:49;;;;;;;14.75;9.28;;;;;;;11.94;77.09;99465.99;1783695;80;21365;-40
2022/11/03 06:19:26;;;;;;;15.83;8.98;;;;;;;11.93;77.25;99462.27;1784003;80;20988;-41
2022/11/03 06:21:55;;;;;;;13.28;8.83;;;;;;;11.95;77.12;99469.49;1784009;80;21188;-40
2022/11/03 06:24:25;;;;;;;13.75;8.55;;;;;;;11.97;76.97;99459.03;1783826;80;20953;-40
2022/11/03 06:26:52;;;;;;;;;;;;;;;12.03;76.66;99460.29;1786683;80;21537;-41
2022/11/03 06:29:19;;;;;;;16.35;9.40;;;;;;;12.08;76.51;99460.77;1783781;80;20115;-40
2022/11/03 06:31:49;;;;;;;15.25;8.80;;;;;;;11.99;76.83;99469.76;1783825;80;20981;-41
2022/11/03 06:34:39;;;;;;;15.60;9.07;;;;;;;12.02;76.67;99469.02;1784002;80;21511;-41
2022/11/03 06:37:25;;;;;;;12.93;8.25;;;;;;;12.02;76.56;99474.45;1783659;80;21068;-40
2022/11/03 06:40:02;;;;;;;12.55;8.48;;;;;;;12.09;76.34;99471.06;1782791;80;21533;-40
2022/11/03 06:42:32;;;;;;;14.40;8.80;;;;;;;12.10;76.17;99478.07;1750936;80;20941;-41
2022/11/03 06:45:01;;;;;;;14.87;8.43;;;;;;;12.05;76.10;99482.45;1783883;80;20909;-41
2022/11/03 06:47:28;;;;;;;12.63;7.67;;;;;;;12.00;76.23;99486.84;1783879;80;21126;-41
2022/11/03 06:49:59;;;;;;;14.43;8.10;;;;;;;12.01;76.22;99487.03;1783768;80;20925;-40
2022/11/03 06:52:32;;;;;;;16.17;8.50;;;;;;;12.00;76.24;99484.13;1784032;80;20968;-41
2022/11/03 06:55:12;;;;;;;14.75;8.80;;;;;;;11.97;76.39;99482.13;1784031;80;21491;-41
2022/11/03 06:57:42;;;;;;;16.35;8.88;;;;;;;11.92;76.42;99481.08;1784055;80;20886;-40
2022/11/03 07:00:27;;;;;;;14.60;8.15;;;;;;;11.88;76.66;99479.67;1783692;80;21126;-41
2022/11/03 07:03:21;;;;;;;14.65;8.53;;;;;;;11.92;76.35;99477.00;1783137;80;20997;-41
2022/11/03 07:05:48;;;;;;;15.25;9.30;;;;;;;11.88;76.27;99474.23;1783842;80;21562;-40
2022/11/03 07:08:29;;;;;;;15.85;9.35;;;;;;;11.83;76.42;99478.62;1783669;80;21000;-41
2022/11/03 07:11:15;;;;;;;17.27;9.38;;;;;;;11.82;76.36;99474.90;1783684;80;21000;-41
2022/11/03 07:13:42;;;;;;;14.53;9.85;;;;;;;11.82;76.08;99463.46;1783694;80;21226;-40
2022/11/03 07:16:30;;;;;;;14.45;10.08;;;;;;;11.83;76.16;99470.47;1783544;80;20949;-41
2022/11/03 07:19:12;;;;;;;18.37;9.48;;;;;;;11.79;76.17;99474.28;1783479;80;20925;-40
2022/11/03 07:22:01;;;;;;;16.12;9.58;;;;;;;11.73;76.51;99478.66;1782559;80;20930;-41
2022/11/03 07:24:32;;;;;;;18.73;9.63;;;;;;;11.82;76.48;99477.61;1784131;80;21025;-40
2022/11/03 07:27:16;;;;;;;18.75;9.88;;;;;;;11.89;76.42;99481.81;1783671;80;21201;-41
2022/11/03 07:29:42;;;;;;;18.15;10.88;;;;;;;11.91;76.27;99486.32;1783580;80;20964;-40
2022/11/03 07:32:18;;;;;;;17.55;10.10;;;;;;;11.90;76.22;99482.03;1783531;80;20974;-40
2022/11/03 07:34:46;;;;;;;17.80;10.25;;;;;;;11.92;76.19;99484.58;1781558;80;20989;-40
2022/11/03 07:37:17;;;;;;;19.32;11.05;;;;;;;11.93;76.16;99484.00;1783579;80;21040;-41
2022/11/03 07:39:44;;;;;;;16.10;10.23;;;;;;;11.91;76.25;99483.61;1782766;80;21125;-41
2022/11/03 07:42:23;;;;;;;15.80;9.75;;;;;;;11.90;76.16;99473.31;1783756;80;20926;-40
2022/11/03 07:44:51;;;;;;;15.05;9.68;;;;;;;11.96;76.05;99487.34;1762862;80;20989;-41
2022/11/03 07:47:19;;;;;;;13.88;10.28;;;;;;;11.95;75.83;99489.30;1761996;80;20941;-41
2022/11/03 07:49:46;;;;;;;18.35;10.43;;;;;;;11.95;75.87;99487.16;1762279;80;21042;-40
2022/11/03 07:52:16;;;;;;;17.17;9.55;;;;;;;11.93;75.93;99489.44;1761904;80;21170;-40
2022/11/03 07:54:44;;;;;;;16.90;9.18;;;;;;;11.95;75.87;99484.44;1762132;81;21001;-40
2022/11/03 07:57:21;;;;;;;16.20;9.48;;;;;;;11.99;75.71;99485.27;1761589;81;21516;-41
2022/11/03 07:59:52;;;;;;;16.32;10.40;;;;;;;12.04;75.55;99480.88;1761867;80;21005;-40
2022/11/03 08:02:51;;;;;;;19.67;10.38;;;;;;;12.05;75.49;99478.38;1762200;81;21087;-41
2022/11/03 08:05:18;;;;;;;17.67;10.40;;;;;;;12.04;75.51;99478.16;1733117;82;21241;-41
2022/11/03 08:07:46;;;;;;;16.90;10.28;;;;;;;12.01;75.63;99481.02;1732910;82;21095;-41
2022/11/03 08:10:12;;;;;;;14.85;10.08;;;;;;;12.05;75.80;99482.45;1745420;81;20966;-41
2022/11/03 08:12:41;;;;;;;14.80;10.93;;;;;;;12.03;76.11;99465.16;1761795;81;20974;-41
2022/11/03 08:15:10;;;;;;;16.75;10.03;;;;;;;11.99;76.22;99460.25;1761837;80;21492;-41
2022/11/03 08:17:38;;;;;;;17.15;10.05;;;;;;;11.98;76.50;99464.67;1761907;80;26759;-41
2022/11/03 08:20:07;;;;;;;16.85;9.95;;;;;;;12.08;76.49;99464.84;1761845;81;21523;-41
2022/11/03 08:22:35;;;;;;;17.40;10.45;;;;;;;12.17;76.08;99464.56;1762152;81;20978;-41
2022/11/03 08:25:02;;;;;;;20.50;11.15;;;;;;;12.16;75.96;99467.86;1761746;81;20966;-41
2022/11/03 08:27:29;;;;;;;16.30;9.40;;;;;;;12.11;75.88;99464.66;1761721;81;21045;-41
2022/11/03 08:29:55;;;;;;;21.30;9.70;;;;;;;12.07;76.06;99463.84;1761981;80;21922;-41
2022/11/03 08:32:22;;;;;;;16.97;10.50;;;;;;;12.12;76.13;99463.52;1762076;81;20958;-41
2022/11/03 08:34:49;;;;;;;15.68;9.83;;;;;;;12.16;76.08;99461.06;1761988;80;21006;-41
2022/11/03 08:37:16;;;;;;;16.40;10.90;;;;;;;12.14;75.99;99460.66;1762068;81;20962;-41
2022/11/03 08:39:43;;;;;;;15.35;9.93;;;;;;;12.09;75.95;99461.55;1762051;81;21013;-41
2022/11/03 08:42:11;;;;;;;16.40;10.20;;;;;;;12.05;75.96;99462.83;1762085;81;21262;-41
2022/11/03 08:44:37;;;;;;;14.23;9.85;;;;;;;12.06;76.08;99460.91;1761790;80;21077;-40
2022/11/03 08:47:04;;;;;;;16.60;10.43;;;;;;;12.05;76.21;99460.72;1761894;81;21029;-41
2022/11/03 08:49:31;;;;;;;16.75;10.40;;;;;;;12.00;76.19;99456.95;1761902;81;21002;-41
2022/11/03 08:51:59;;;;;;;15.75;10.18;;;;;;;11.97;76.27;99450.88;1761737;81;21029;-41
2022/11/03 08:54:25;;;;;;;16.42;9.95;;;;;;;11.95;76.34;99447.19;1761922;80;21232;-41
2022/11/03 08:56:52;;;;;;;15.50;10.95;;;;;;;11.99;76.41;99447.23;1761698;81;21013;-41
2022/11/03 08:59:19;;;;;;;16.60;10.15;;;;;;;12.00;76.52;99448.80;1761792;81;20939;-41
2022/11/03 09:01:46;;;;;;;16.75;9.95;;;;;;;11.97;76.37;99441.37;1761710;81;21688;-41
2022/11/03 09:04:14;;;;;;;16.20;9.58;;;;;;;11.92;76.28;99441.68;1761826;81;21511;-41
2022/11/03 09:06:42;;;;;;;17.30;10.78;;;;;;;11.97;76.44;99448.16;1761902;80;20927;-41
2022/11/03 09:09:09;;;;;;;18.12;10.20;;;;;;;11.97;76.49;99449.52;1761805;81;20899;-41
2022/11/03 09:11:37;;;;;;;15.08;10.80;;;;;;;11.96;76.76;99453.38;1761905;81;21008;-41
2022/11/03 09:14:03;;;;;;;14.80;9.95;;;;;;;11.94;76.94;99448.91;1761849;80;21079;-40
2022/11/03 09:16:31;;;;;;;15.95;9.63;;;;;;;11.95;77.00;99447.77;1761957;80;21092;-41
2022/11/03 09:18:59;;;;;;;17.27;10.48;;;;;;;11.95;77.27;99445.05;1761782;81;20938;-41
2022/11/03 09:21:26;;;;;;;16.62;10.78;;;;;;;11.92;77.36;99449.83;1761840;81;21508;-41
2022/11/03 09:23:52;;;;;;;13.43;9.08;;;;;;;11.91;77.48;99440.89;1761962;80;21026;-41
2022/11/03 09:26:20;;;;;;;15.18;8.85;;;;;;;11.92;77.21;99438.97;1762016;80;21291;-41
2022/11/03 09:28:48;;;;;;;13.30;8.78;;;;;;;11.93;77.19;99445.97;1762033;81;21787;-41
2022/11/03 09:31:15;;;;;;;14.78;9.50;;;;;;;11.93;77.21;99445.97;1761819;80;21240;-41
2022/11/03 09:33:42;;;;;;;13.25;9.40;;;;;;;11.88;77.44;99440.85;1761823;81;20961;-41
2022/11/03 09:36:10;;;;;;;14.18;8.70;;;;;;;11.84;77.40;99454.95;1761901;80;21492;-40
2022/11/03 09:38:37;;;;;;;12.93;7.53;;;;;;;11.85;77.47;99452.45;1761738;81;21549;-41
2022/11/03 09:41:04;;;;;;;13.30;8.08;;;;;;;11.87;77.34;99450.14;1761693;81;21022;-40
2022/11/03 09:43:32;;;;;;;8.88;6.75;;;;;;;11.83;77.44;99451.45;1761932;80;21512;-41
2022/11/03 09:45:59;;;;;;;9.60;5.62;;;;;;;11.78;77.16;99449.62;1761626;81;22230;-41
2022/11/03 09:48:26;;;;;;;11.60;6.75;;;;;;;11.75;76.94;99451.94;1761755;81;21025;-40
2022/11/03 09:50:53;;;;;;;11.35;5.35;;;;;;;11.76;76.84;99448.05;1690832;81;21503;-41
2022/11/03 09:53:20;;;;;;;7.30;5.03;;;;;;;11.71;76.88;99447.56;1761718;81;21567;-41
2022/11/03 09:55:48;;;;;;;9.75;5.92;;;;;;;11.63;76.72;99456.16;1761814;81;21221;-40
2022/11/03 09:58:16;;;;;;;9.08;5.90;;;;;;;11.55;76.77;99451.77;1761586;81;21478;-41
2022/11/03 10:00:43;;;;;;;8.15;6.10;;;;;;;11.51;77.14;99455.00;1761778;81;21017;-41
2022/11/03 10:03:12;;;;;;;10.55;6.53;;;;;;;11.49;77.29;99457.86;1761850;81;21026;-41
2022/11/03 10:05:40;;;;;;;;;;;;;;;11.43;77.34;99457.38;1764860;81;21522;-41
2022/11/03 10:08:17;;;;;;;7.95;5.00;;;;;;;11.38;77.40;99457.67;1761947;81;21234;-41
2022/11/03 10:10:45;;;;;;;8.20;5.20;;;;;;;11.33;77.49;99459.33;1752855;81;20899;-41
2022/11/03 10:13:17;;;;;;;5.78;4.37;;;;;;;11.31;77.48;99463.00;1761805;81;21493;-41
2022/11/03 10:15:44;;;;;;;7.85;4.72;;;;;;;11.26;77.55;99466.00;1761842;80;21018;-40
2022/11/03 10:18:11;;;;;;;7.53;5.15;;;;;;;11.20;77.66;99470.16;1761870;80;21000;-41
2022/11/03 10:20:38;;;;;;;8.88;5.62;;;;;;;11.21;77.90;99467.09;1761857;81;21122;-41
2022/11/03 10:23:07;;;;;;;9.95;6.67;;;;;;;11.21;78.31;99463.59;1761584;81;21073;-41
2022/11/03 10:25:42;;;;;;;8.90;6.00;;;;;;;11.17;78.47;99464.89;1761751;81;21055;-41
2022/11/03 10:28:22;;;;;;;11.10;7.15;;;;;;;11.14;78.85;99466.16;1761636;81;20974;-41
2022/11/03 10:31:06;;;;;;;10.85;7.40;;;;;;;11.13;79.03;99466.76;1762272;81;21100;-40
2022/11/03 10:33:37;;;;;;;12.03;7.75;;;;;;;11.15;79.05;99463.66;1761889;81;21125;-41
2022/11/03 10:36:17;;;;;;;12.68;8.70;;;;;;;11.14;79.29;99466.95;1761888;81;20946;-40
2022/11/03 10:38:44;;;;;;;10.03;7.33;;;;;;;11.09;79.49;99469.17;1761940;80;20962;-41
2022/11/03 10:41:24;;;;;;;9.65;7.42;;;;;;;11.06;79.64;99466.62;1761663;81;20989;-41
2022/11/03 10:44:11;;;;;;;11.57;7.87;;;;;;;11.08;79.55;99471.12;1761771;81;21259;-41
2022/11/03 10:46:41;;;;;;;10.18;7.12;;;;;;;11.07;79.47;99466.05;1761841;80;21602;-41
2022/11/03 14:57:58;;;;;;;6.55;4.50;;;;;;;11.00;86.92;99524.22;1785185;80;21995;-40
2022/11/03 15:00:26;;;;;;;5.47;4.30;;;;;;;11.16;85.95;99524.37;1771639;80;20977;-41
2022/11/03 15:02:53;;;;;;;4.53;3.98;;;;;;;11.23;85.99;99526.44;1759002;81;21287;-41
2022/11/03 15:08:05;;;;;;;3.85;3.30;;;;;;;11.40;85.02;99527.89;1758924;81;20921;-41
2022/11/03 15:10:32;;;;;;;4.22;3.70;;;;;;;11.47;84.20;99524.75;1759042;81;20941;-41
2022/11/03 15:12:59;;;;;;;6.20;3.50;;;;;;;11.58;83.31;99522.98;1753155;81;20961;-41
2022/11/03 15:15:26;;;;;;;5.87;3.45;;;;;;;11.69;82.29;99528.61;1759030;81;21227;-41
2022/11/03 15:17:53;;;;;;;4.45;3.90;;;;;;;11.69;81.38;99529.39;1758705;81;21601;-41
2022/11/03 15:20:21;;;;;;;4.72;3.70;;;;;;;11.70;80.94;99529.61;1759008;81;21076;-41
2022/11/03 15:22:48;;;;;;;4.65;3.72;;;;;;;11.76;80.32;99534.20;1759027;81;21518;-41
2022/11/03 15:25:14;;;;;;;6.20;4.28;;;;;;;11.84;79.70;99536.45;1758824;81;21452;-41
2022/11/03 15:27:41;;;;;;;5.22;4.47;;;;;;;11.92;79.30;99527.26;1759075;81;21525;-41
2022/11/03 15:30:10;;;;;;;6.72;4.97;;;;;;;11.93;78.82;99527.48;1758980;81;20933;-41
2022/11/03 15:32:37;;;;;;;6.00;4.63;;;;;;;11.97;78.55;99535.89;1759243;81;21015;-41
2022/11/03 15:35:06;;;;;;;4.90;4.28;;;;;;;12.04;78.14;99535.23;1758988;81;21000;-41
2022/11/03 15:37:34;;;;;;;6.30;4.72;;;;;;;12.11;77.45;99532.61;1758949;81;21048;-41
2022/11/03 15:40:01;;;;;;;5.42;4.25;;;;;;;12.14;77.06;99534.61;1759054;81;21208;-41
2022/11/03 15:42:28;;;;;;;4.10;3.70;;;;;;;12.17;76.89;99540.66;1759030;81;20894;-41
2022/11/03 15:44:55;;;;;;;4.17;3.70;;;;;;;12.20;76.58;99538.56;1759063;81;20968;-41
2022/11/03 15:47:22;;;;;;;4.10;3.22;;;;;;;12.24;76.15;99540.00;1758933;81;21048;-41
2022/11/03 15:49:49;;;;;;;4.28;3.20;;;;;;;12.28;75.70;99537.55;1758955;81;21064;-41
2022/11/03 15:52:17;;;;;;;4.30;3.52;;;;;;;12.30;75.48;99547.45;1759157;81;21255;-41
2022/11/03 15:54:43;;;;;;;3.62;3.27;;;;;;;12.30;75.42;99550.17;1759103;81;21556;-41
2022/11/03 15:57:10;;;;;;;3.98;3.20;;;;;;;12.31;75.22;99546.31;1754921;81;21011;-41
2022/11/03 15:59:38;;;;;;;3.10;2.80;;;;;;;12.30;74.78;99548.81;1730917;82;20976;-41
2022/11/03 16:02:07;;;;;;;5.45;3.05;;;;;;;12.35;74.72;99546.36;1761422;81;21001;-41
2022/11/03 16:04:34;;;;;;;3.77;3.30;;;;;;;12.38;74.39;99549.15;1761016;81;21207;-41
2022/11/03 16:07:01;;;;;;;3.55;3.20;;;;;;;12.37;74.43;99546.22;1761188;81;20968;-41
2022/11/03 16:09:28;;;;;;;4.03;3.35;;;;;;;12.39;74.34;99544.50;1760969;81;21019;-41
2022/11/03 16:11:55;;;;;;;5.37;3.47;;;;;;;12.38;74.22;99550.51;1760950;81;21387;-41